createdAt,value
2018-04-18T00:01:15.387Z,16.43
2018-04-18T00:03:42.940Z,17.50
2018-04-18T00:06:10.532Z,20.73
2018-04-18T00:08:38.096Z,17.20
2018-04-18T00:11:05.653Z,15.43
2018-04-18T00:13:33.211Z,15.90
2018-04-18T00:16:00.777Z,15.90
2018-04-18T00:18:28.348Z,16.23
2018-04-18T00:20:55.900Z,16.43
2018-04-18T00:23:23.456Z,18.20
2018-04-18T00:25:51.017Z,14.53
2018-04-18T00:28:18.581Z,17.03
2018-04-18T00:30:46.157Z,15.17
2018-04-18T00:33:13.704Z,18.00
2018-04-18T00:35:41.252Z,15.50
2018-04-18T00:38:08.806Z,19.50
2018-04-18T00:40:36.366Z,16.50
2018-04-18T00:43:03.944Z,13.83
2018-04-18T00:45:32.272Z,17.10
2018-04-18T00:47:59.844Z,17.73
2018-04-18T00:50:27.395Z,18.47
2018-04-18T00:52:54.952Z,16.17
2018-04-18T00:55:22.527Z,20.00
2018-04-18T00:57:50.076Z,17.93
2018-04-18T01:00:17.629Z,16.87
2018-04-18T01:02:45.187Z,18.03
2018-04-18T01:05:12.748Z,16.77
2018-04-18T01:07:40.331Z,16.57
2018-04-18T01:10:07.888Z,18.47
2018-04-18T01:12:35.448Z,18.00
2018-04-18T01:15:03.009Z,19.23
2018-04-18T01:17:31.327Z,23.77
2018-04-18T01:19:58.910Z,18.97
2018-04-18T01:22:26.464Z,20.60
2018-04-18T01:24:54.012Z,21.00
2018-04-18T01:27:21.569Z,22.67
2018-04-18T01:29:49.132Z,20.80
2018-04-18T01:32:16.719Z,22.13
2018-04-18T01:34:44.280Z,23.60
2018-04-18T01:37:11.852Z,22.77
2018-04-18T01:39:39.404Z,21.50
2018-04-18T01:42:07.728Z,26.07
2018-04-18T01:44:35.366Z,21.33
2018-04-18T01:47:02.916Z,22.73
2018-04-18T01:49:32.316Z,21.90
2018-04-18T01:52:01.196Z,24.20
2018-04-18T01:54:28.748Z,24.73
2018-04-18T01:56:57.113Z,25.50
2018-04-18T01:59:25.459Z,22.93
2018-04-18T02:01:53.019Z,23.87
2018-04-18T02:04:20.577Z,23.83
2018-04-18T02:06:48.136Z,24.37
2018-04-18T02:09:15.726Z,24.23
2018-04-18T02:11:43.285Z,23.63
2018-04-18T02:14:10.868Z,23.70
2018-04-18T02:16:41.472Z,26.07
2018-04-18T02:19:09.029Z,21.13
2018-04-18T02:21:36.589Z,24.17
2018-04-18T02:24:04.914Z,21.57
2018-04-18T02:26:32.492Z,17.40
2018-04-18T02:29:00.048Z,20.10
2018-04-18T02:31:27.624Z,22.07
2018-04-18T02:33:55.179Z,21.80
2018-04-18T02:36:22.740Z,18.93
2018-04-18T02:38:50.316Z,22.17
2018-04-18T02:41:18.660Z,20.43
2018-04-18T02:43:46.218Z,20.40
2018-04-18T02:46:13.783Z,19.70
2018-04-18T02:48:41.342Z,20.77
2018-04-18T02:51:08.938Z,18.40
2018-04-18T02:53:36.499Z,20.57
2018-04-18T02:56:04.056Z,17.40
2018-04-18T02:58:31.615Z,18.33
2018-04-18T03:00:59.173Z,21.03
2018-04-18T03:03:26.759Z,18.87
2018-04-18T03:05:54.316Z,17.07
2018-04-18T03:08:21.874Z,19.67
2018-04-18T03:10:49.433Z,20.50
2018-04-18T03:13:16.987Z,17.90
2018-04-18T03:15:44.564Z,20.00
2018-04-18T03:18:12.120Z,15.67
2018-04-18T03:20:39.692Z,17.57
2018-04-18T03:23:08.766Z,15.17
2018-04-18T03:25:36.316Z,17.67
2018-04-18T03:28:03.900Z,18.90
2018-04-18T03:30:31.457Z,15.57
2018-04-18T03:32:59.017Z,15.80
2018-04-18T03:35:26.569Z,14.67
2018-04-18T03:37:54.888Z,16.70
2018-04-18T03:40:22.461Z,16.33
2018-04-18T03:42:50.012Z,14.53
2018-04-18T03:45:18.335Z,18.33
2018-04-18T03:47:45.893Z,16.77
2018-04-18T03:50:13.449Z,16.77
2018-04-18T03:52:41.024Z,15.03
2018-04-18T03:55:08.582Z,14.07
2018-04-18T03:57:36.133Z,13.30
2018-04-18T04:02:37.968Z,15.00
2018-04-18T04:05:05.544Z,14.87
2018-04-18T04:07:33.109Z,15.07
2018-04-18T04:10:00.661Z,17.63
2018-04-18T04:12:28.209Z,11.13
2018-04-18T04:14:55.760Z,15.80
2018-04-18T04:17:34.932Z,13.47
2018-04-18T04:20:14.143Z,14.70
2018-04-18T04:22:53.433Z,12.17
2018-04-18T04:25:21.789Z,11.90
2018-04-18T04:27:49.348Z,10.53
2018-04-18T04:30:26.459Z,13.73
2018-04-18T04:35:38.824Z,14.57
2018-04-18T04:38:06.424Z,12.47
2018-04-18T04:40:33.976Z,13.63
2018-04-18T04:43:13.035Z,11.97
2018-04-18T04:45:40.584Z,11.27
2018-04-18T04:48:18.833Z,13.43
2018-04-18T04:50:46.396Z,12.17
2018-04-18T04:55:59.484Z,10.53
2018-04-18T05:03:56.555Z,11.80
2018-04-18T05:06:24.112Z,13.40
2018-04-18T05:08:51.688Z,12.77
2018-04-18T05:14:03.831Z,11.20
2018-04-18T05:16:31.381Z,11.77
2018-04-18T05:21:33.567Z,10.03
2018-04-18T05:24:01.121Z,12.70
2018-04-18T05:26:31.544Z,14.03
2018-04-18T05:28:59.099Z,9.80
2018-04-18T05:31:26.652Z,9.63
2018-04-18T05:36:27.161Z,11.47
2018-04-18T05:38:54.736Z,15.77
2018-04-18T05:41:22.284Z,12.47
2018-04-18T05:43:49.832Z,13.43
2018-04-18T05:46:18.163Z,17.93
2018-04-18T05:48:45.715Z,11.90
2018-04-18T05:51:13.296Z,9.30
2018-04-18T05:53:40.856Z,12.73
2018-04-18T05:56:08.416Z,12.70
2018-04-18T05:58:35.965Z,14.10
2018-04-18T06:01:03.516Z,13.87
2018-04-18T06:03:31.102Z,17.43
2018-04-18T06:05:59.428Z,13.47
2018-04-18T06:08:26.977Z,16.03
2018-04-18T06:10:54.534Z,15.50
2018-04-18T06:13:22.080Z,13.93
2018-04-18T06:15:49.653Z,13.93
2018-04-18T06:18:17.202Z,16.17
2018-04-18T06:20:44.765Z,12.63
2018-04-18T06:23:12.317Z,16.90
2018-04-18T06:25:39.864Z,14.83
2018-04-18T06:28:07.453Z,12.97
2018-04-18T06:30:35.052Z,14.07
2018-04-18T06:33:02.616Z,16.70
2018-04-18T06:35:30.959Z,16.10
2018-04-18T06:37:59.468Z,18.80
2018-04-18T06:40:27.052Z,19.13
2018-04-18T06:42:54.605Z,15.90
2018-04-18T06:45:22.156Z,14.87
2018-04-18T06:47:50.468Z,18.17
2018-04-18T06:50:18.016Z,16.73
2018-04-18T06:52:45.593Z,15.57
2018-04-18T06:55:13.140Z,17.23
2018-04-18T06:57:40.708Z,15.97
2018-04-18T07:00:09.044Z,15.27
2018-04-18T07:02:36.597Z,17.43
2018-04-18T07:05:04.185Z,18.67
2018-04-18T07:07:31.737Z,16.77
2018-04-18T07:09:59.302Z,17.40
2018-04-18T07:12:26.873Z,23.13
2018-04-18T07:14:54.425Z,12.57
2018-04-18T07:17:21.977Z,23.63
2018-04-18T07:19:49.528Z,20.03
2018-04-18T07:22:17.080Z,15.80
2018-04-18T07:24:44.654Z,15.80
2018-04-18T07:27:12.217Z,12.80
2018-04-18T07:29:39.783Z,20.70
2018-04-18T07:32:07.344Z,19.67
2018-04-18T07:34:34.899Z,16.03
2018-04-18T07:37:02.476Z,11.93
2018-04-18T07:39:30.025Z,14.03
2018-04-18T07:41:57.628Z,18.70
2018-04-18T07:44:25.967Z,14.27
2018-04-18T07:46:53.522Z,16.97
2018-04-18T07:49:21.092Z,17.43
2018-04-18T07:51:49.477Z,16.93
2018-04-18T07:54:17.028Z,16.40
2018-04-18T07:56:44.581Z,18.50
2018-04-18T07:59:12.138Z,15.40
2018-04-18T08:01:39.721Z,19.60
2018-04-18T08:04:07.273Z,18.83
2018-04-18T08:06:34.824Z,16.93
2018-04-18T08:09:02.375Z,16.67
2018-04-18T08:11:29.932Z,14.40
2018-04-18T08:13:57.572Z,15.73
2018-04-18T08:16:25.164Z,17.13
2018-04-18T08:18:53.487Z,18.33
2018-04-18T08:21:21.037Z,14.47
2018-04-18T08:23:48.604Z,20.40
2018-04-18T08:26:16.190Z,15.20
2018-04-18T08:28:43.740Z,17.60
2018-04-18T08:31:11.299Z,13.57
2018-04-18T08:33:38.862Z,19.60
2018-04-18T08:36:06.422Z,21.07
2018-04-18T08:38:34.001Z,17.87
2018-04-18T08:41:01.553Z,24.20
2018-04-18T08:43:29.104Z,21.07
2018-04-18T08:45:56.657Z,25.60
2018-04-18T08:48:24.220Z,19.40
2018-04-18T08:50:51.833Z,18.43
2018-04-18T08:53:19.388Z,23.30
2018-04-18T08:55:46.948Z,22.33
2018-04-18T08:58:14.496Z,23.87
2018-04-18T09:00:42.045Z,23.73
2018-04-18T09:03:09.625Z,23.93
2018-04-18T09:05:37.180Z,23.43
2018-04-18T09:08:04.933Z,21.10
2018-04-18T09:10:32.492Z,17.10
2018-04-18T09:13:00.048Z,20.53
2018-04-18T09:15:27.624Z,21.43
2018-04-18T09:17:55.183Z,17.97
2018-04-18T09:20:22.732Z,21.87
2018-04-18T09:22:50.282Z,17.23
2018-04-18T09:25:17.832Z,16.90
2018-04-18T09:27:45.413Z,20.50
2018-04-18T09:30:12.966Z,19.27
2018-04-18T09:32:40.720Z,16.10
2018-04-18T09:35:08.268Z,17.53
2018-04-18T09:37:35.816Z,15.90
2018-04-18T09:40:04.156Z,21.73
2018-04-18T09:42:31.744Z,19.60
2018-04-18T09:44:59.731Z,18.77
2018-04-18T09:47:27.280Z,16.17
2018-04-18T09:49:54.848Z,20.10
2018-04-18T09:52:22.437Z,14.43
2018-04-18T09:54:49.998Z,14.07
2018-04-18T09:57:17.552Z,21.87
2018-04-18T09:59:45.101Z,13.70
2018-04-18T10:02:18.576Z,12.33
2018-04-18T10:04:46.129Z,16.40
2018-04-18T10:07:13.676Z,15.50
2018-04-18T10:09:41.265Z,16.53
2018-04-18T10:12:08.820Z,16.67
2018-04-18T10:14:36.377Z,17.00
2018-04-18T10:17:03.928Z,14.33
2018-04-18T10:19:31.479Z,14.37
2018-04-18T10:22:00.224Z,15.60
2018-04-18T10:24:27.776Z,15.43
2018-04-18T10:26:55.332Z,13.70
2018-04-18T10:29:22.880Z,16.13
2018-04-18T10:31:51.208Z,16.33
2018-04-18T10:34:18.780Z,14.90
2018-04-18T10:36:46.352Z,16.93
2018-04-18T10:39:13.906Z,18.57
2018-04-18T10:41:41.468Z,14.80
2018-04-18T10:44:09.024Z,15.20
2018-04-18T10:46:36.596Z,15.43
2018-04-18T10:49:04.157Z,14.87
2018-04-18T10:51:31.717Z,14.00
2018-04-18T10:53:59.276Z,17.90
2018-04-18T10:56:27.600Z,16.30
2018-04-18T10:58:55.180Z,14.87
2018-04-18T11:01:22.742Z,17.93
2018-04-18T11:03:50.292Z,15.90
2018-04-18T11:06:17.844Z,18.73
2018-04-18T11:08:45.400Z,17.13
2018-04-18T11:11:12.998Z,14.53
2018-04-18T11:13:40.560Z,18.10
2018-04-18T11:16:08.121Z,15.77
2018-04-18T11:18:35.685Z,19.27
2018-04-18T11:21:03.236Z,15.20
2018-04-18T11:23:30.815Z,16.03
2018-04-18T11:25:58.368Z,13.70
2018-04-18T11:28:25.924Z,11.83
2018-04-18T11:30:54.273Z,18.03
2018-04-18T11:33:21.828Z,14.77
2018-04-18T11:35:49.422Z,16.10
2018-04-18T11:38:16.992Z,14.97
2018-04-18T11:40:45.419Z,13.07
2018-04-18T11:43:12.987Z,15.10
2018-04-18T11:45:41.311Z,14.53
2018-04-18T11:48:09.680Z,12.93
2018-04-18T11:50:37.241Z,19.00
2018-04-18T11:53:04.804Z,11.67
2018-04-18T11:55:33.141Z,14.17
2018-04-18T11:58:00.704Z,15.40
2018-04-18T12:00:28.296Z,11.50
2018-04-18T12:02:55.856Z,16.67
2018-04-18T12:05:24.199Z,15.43
2018-04-18T12:07:51.764Z,11.80
2018-04-18T12:10:19.321Z,13.10
2018-04-18T12:12:46.896Z,11.70
2018-04-18T12:15:15.225Z,13.47
2018-04-18T12:17:42.787Z,11.77
2018-04-18T12:20:10.345Z,9.10
2018-04-18T12:22:37.901Z,13.23
2018-04-18T12:25:05.484Z,16.73
2018-04-18T12:27:33.052Z,9.93
2018-04-18T12:30:00.657Z,10.27
2018-04-18T12:32:28.980Z,9.87
2018-04-18T12:34:56.540Z,14.30
2018-04-18T12:37:24.112Z,10.70
2018-04-18T12:39:51.676Z,10.73
2018-04-18T12:42:20.000Z,8.80
2018-04-18T12:44:47.557Z,10.10
2018-04-18T12:47:15.104Z,9.40
2018-04-18T12:49:42.690Z,12.20
2018-04-18T12:52:10.255Z,9.93
2018-04-18T12:54:37.813Z,8.17
2018-04-18T12:57:05.377Z,13.13
2018-04-18T12:59:32.931Z,7.73
2018-04-18T13:02:00.528Z,9.50
2018-04-18T13:04:28.085Z,10.60
2018-04-18T13:06:56.405Z,10.50
2018-04-18T13:09:23.956Z,9.57
2018-04-18T13:11:51.516Z,10.97
2018-04-18T13:14:19.098Z,8.97
2018-04-18T13:16:46.652Z,12.03
2018-04-18T13:19:14.226Z,11.80
2018-04-18T13:21:41.788Z,7.83
2018-04-18T13:24:10.124Z,12.03
2018-04-18T13:26:37.698Z,8.13
2018-04-18T13:29:05.252Z,7.27
2018-04-18T13:31:33.569Z,8.87
2018-04-18T13:34:01.884Z,7.50
2018-04-18T13:36:29.432Z,7.83
2018-04-18T13:38:57.081Z,9.80
2018-04-18T13:41:24.648Z,8.98
2018-04-18T13:43:52.248Z,9.03
2018-04-18T13:46:19.816Z,7.00
2018-04-18T13:48:47.425Z,7.97
2018-04-18T13:51:15.000Z,7.43
2018-04-18T13:53:42.553Z,8.90
2018-04-18T13:56:10.112Z,7.57
2018-04-18T13:58:37.672Z,7.13
2018-04-18T14:01:05.226Z,8.53
2018-04-18T14:03:32.804Z,5.80
2018-04-18T14:06:00.359Z,8.60
2018-04-18T14:08:27.916Z,6.50
2018-04-18T14:10:55.464Z,6.57
2018-04-18T14:13:23.026Z,7.37
2018-04-18T14:15:50.637Z,8.73
2018-04-18T14:18:18.975Z,10.73
2018-04-18T14:20:47.353Z,7.77
2018-04-18T14:23:14.877Z,6.13
2018-04-18T14:25:42.437Z,6.83
2018-04-18T14:28:10.044Z,9.43
2018-04-18T14:30:37.600Z,8.40
2018-04-18T14:33:05.156Z,5.17
2018-04-18T14:35:32.704Z,9.43
2018-04-18T14:38:00.267Z,8.17
2018-04-18T14:40:27.842Z,7.50
2018-04-18T14:42:56.167Z,10.90
2018-04-18T14:45:23.753Z,8.20
2018-04-18T14:47:51.310Z,8.33
2018-04-18T14:50:18.865Z,7.33
2018-04-18T14:52:46.448Z,7.63
2018-04-18T14:55:14.008Z,7.10
2018-04-18T14:57:41.564Z,5.50
2018-04-18T15:00:09.114Z,9.23
2018-04-18T15:02:36.672Z,6.67
2018-04-18T15:05:05.037Z,5.63
2018-04-18T15:07:32.588Z,6.97
2018-04-18T15:10:00.154Z,8.03
2018-04-18T15:12:28.886Z,6.47
2018-04-18T15:14:56.544Z,5.83
2018-04-18T15:17:24.146Z,8.27
2018-04-18T15:19:51.708Z,7.00
2018-04-18T15:22:20.073Z,4.23
2018-04-18T15:24:47.718Z,3.13
2018-04-18T15:27:15.268Z,5.93
2018-04-18T15:29:42.856Z,7.37
2018-04-18T15:32:10.417Z,9.60
2018-04-18T15:34:37.972Z,5.87
2018-04-18T15:37:05.524Z,7.00
2018-04-18T15:39:33.073Z,8.60
2018-04-18T15:42:00.651Z,5.80
2018-04-18T15:44:28.205Z,8.90
2018-04-18T15:46:56.520Z,6.43
2018-04-18T15:49:24.086Z,4.13
2018-04-18T15:51:51.653Z,4.60
2018-04-18T15:54:19.237Z,4.77
2018-04-18T15:56:46.796Z,7.30
2018-04-18T15:59:14.356Z,7.27
2018-04-18T16:01:41.908Z,3.87
2018-04-18T16:04:09.461Z,5.30
2018-04-18T16:06:37.157Z,4.83
2018-04-18T16:09:04.712Z,3.67
2018-04-18T16:11:32.268Z,5.40
2018-04-18T16:13:59.863Z,5.47
2018-04-18T16:16:27.445Z,3.80
2018-04-18T16:18:55.024Z,3.17
2018-04-18T16:21:22.585Z,2.60
2018-04-18T16:23:50.137Z,3.20
2018-04-18T16:26:17.695Z,1.93
2018-04-18T16:28:45.252Z,4.03
2018-04-18T16:31:12.854Z,3.17
2018-04-18T16:33:40.410Z,4.50
2018-04-18T16:36:07.964Z,5.33
2018-04-18T16:38:35.537Z,2.57
2018-04-18T16:41:03.097Z,2.13
2018-04-18T16:43:30.661Z,4.23
2018-04-18T16:45:59.008Z,2.53
2018-04-18T16:48:26.564Z,5.23
2018-04-18T16:50:54.130Z,3.53
2018-04-18T16:53:21.755Z,2.10
2018-04-18T16:55:49.315Z,2.73
2018-04-18T16:58:16.872Z,1.67
2018-04-18T17:00:44.429Z,4.10
2018-04-18T17:03:11.988Z,7.40
2018-04-18T17:05:39.546Z,2.60
2018-04-18T17:08:07.095Z,1.90
2018-04-18T17:10:34.669Z,3.73
2018-04-18T17:13:02.231Z,2.97
2018-04-18T17:15:29.797Z,1.53
2018-04-18T17:17:57.348Z,2.80
2018-04-18T17:20:24.929Z,2.17
2018-04-18T17:22:52.516Z,2.03
2018-04-18T17:25:20.065Z,1.37
2018-04-18T17:27:47.632Z,4.47
2018-04-18T17:30:15.948Z,3.80
2018-04-18T17:32:43.532Z,1.60
2018-04-18T17:35:11.154Z,3.17
2018-04-18T17:37:38.705Z,2.83
2018-04-18T17:40:06.265Z,1.70
2018-04-18T17:42:33.820Z,2.37
2018-04-18T17:45:01.398Z,2.47
2018-04-18T17:47:28.961Z,1.77
2018-04-18T17:49:57.062Z,2.00
2018-04-18T17:52:24.678Z,2.33
2018-04-18T17:54:52.256Z,1.77
2018-04-18T17:57:19.812Z,2.43
2018-04-18T17:59:47.451Z,3.03
2018-04-18T18:02:15.119Z,3.20
2018-04-18T18:04:42.677Z,2.20
2018-04-18T18:07:10.253Z,4.40
2018-04-18T18:09:37.854Z,1.87
2018-04-18T18:12:05.379Z,1.40
2018-04-18T18:14:32.908Z,2.63
2018-04-18T18:17:00.452Z,1.67
2018-04-18T18:19:28.050Z,3.77
2018-04-18T18:21:55.591Z,1.37
2018-04-18T18:24:23.133Z,1.37
2018-04-18T18:26:50.680Z,1.60
2018-04-18T18:29:18.235Z,2.73
2018-04-18T18:31:45.784Z,2.10
2018-04-18T18:34:14.098Z,1.47
2018-04-18T18:36:41.650Z,5.33
2018-04-18T18:39:09.204Z,2.63
2018-04-18T18:41:36.727Z,2.47
2018-04-18T18:44:04.289Z,1.80
2018-04-18T18:46:31.827Z,3.03
2018-04-18T18:48:59.356Z,2.87
2018-04-18T18:51:26.888Z,2.30
2018-04-18T18:53:54.430Z,1.97
2018-04-18T18:56:21.980Z,2.00
2018-04-18T18:58:49.516Z,1.83
2018-04-18T19:01:17.036Z,5.17
2018-04-18T19:03:44.562Z,2.50
2018-04-18T19:06:12.088Z,1.13
2018-04-18T19:08:39.651Z,2.30
2018-04-18T19:11:07.191Z,1.53
2018-04-18T19:13:34.716Z,1.87
2018-04-18T19:16:02.418Z,3.23
2018-04-18T19:18:30.736Z,1.47
2018-04-18T19:20:58.298Z,3.07
2018-04-18T19:23:25.891Z,2.43
2018-04-18T19:25:53.439Z,3.07
2018-04-18T19:28:21.125Z,4.77
2018-04-18T19:30:48.731Z,3.67
2018-04-18T19:33:16.292Z,2.43
2018-04-18T19:35:43.845Z,1.93
2018-04-18T19:38:11.394Z,2.77
2018-04-18T19:40:38.930Z,2.73
2018-04-18T19:43:06.531Z,1.93
2018-04-18T19:45:34.123Z,2.13
2018-04-18T19:48:01.673Z,3.37
2018-04-18T19:50:29.246Z,2.50
2018-04-18T19:52:56.779Z,2.83
2018-04-18T19:55:24.298Z,7.93
2018-04-18T19:57:51.852Z,2.10
2018-04-18T20:00:19.399Z,2.73
2018-04-18T20:02:47.695Z,4.27
2018-04-18T20:05:15.284Z,2.30
2018-04-18T20:07:42.821Z,2.90
2018-04-18T20:10:10.376Z,2.70
2018-04-18T20:12:38.118Z,2.53
2018-04-18T20:15:05.658Z,1.97
2018-04-18T20:17:33.950Z,2.20
2018-04-18T20:20:01.523Z,2.23
2018-04-18T20:22:29.086Z,1.90
2018-04-18T20:24:56.630Z,2.30
2018-04-18T20:27:24.166Z,1.97
2018-04-18T20:29:52.461Z,3.37
2018-04-18T20:32:20.003Z,3.40
2018-04-18T20:34:48.316Z,2.17
2018-04-18T20:37:15.854Z,2.17
2018-04-18T20:39:43.391Z,2.80
2018-04-18T20:42:10.926Z,2.93
2018-04-18T20:44:38.444Z,3.60
2018-04-18T20:47:06.007Z,2.47
2018-04-18T20:49:34.446Z,3.10
2018-04-18T20:52:01.968Z,1.50
2018-04-18T20:54:29.500Z,2.23
2018-04-18T20:56:57.025Z,3.73
2018-04-18T20:59:24.584Z,2.57
2018-04-18T21:01:52.124Z,2.70
2018-04-18T21:04:19.645Z,2.33
2018-04-18T21:06:47.164Z,3.60
2018-04-18T21:09:14.688Z,4.10
2018-04-18T21:11:43.010Z,1.80
2018-04-18T21:14:10.546Z,3.30
2018-04-18T21:16:38.080Z,2.03
2018-04-18T21:19:05.615Z,1.13
2018-04-18T21:21:33.162Z,2.13
2018-04-18T21:24:00.700Z,2.43
2018-04-18T21:26:28.220Z,4.93
2018-04-18T21:28:55.745Z,3.50
2018-04-18T21:31:23.290Z,2.53
2018-04-18T21:33:50.823Z,4.27
2018-04-18T21:36:18.379Z,2.77
2018-04-18T21:38:45.926Z,1.83
2018-04-18T21:41:13.452Z,1.63
2018-04-18T21:43:41.740Z,2.03
2018-04-18T21:46:10.035Z,2.00
2018-04-18T21:48:37.580Z,1.70
2018-04-18T21:51:05.118Z,1.53
2018-04-18T21:53:32.640Z,1.50
2018-04-18T21:56:00.180Z,2.97
2018-04-18T21:58:27.894Z,1.30
2018-04-18T22:00:55.453Z,1.30
2018-04-18T22:03:23.744Z,1.87
2018-04-18T22:05:51.282Z,1.53
2018-04-18T22:08:18.804Z,2.10
2018-04-18T22:10:46.341Z,1.73
2018-04-18T22:13:13.902Z,2.30
2018-04-18T22:15:41.416Z,1.30
2018-04-18T22:18:09.717Z,2.13
2018-04-18T22:20:37.248Z,1.83
2018-04-18T22:23:05.552Z,2.13
2018-04-18T22:25:33.111Z,2.33
2018-04-18T22:28:00.653Z,2.97
2018-04-18T22:30:28.192Z,4.10
2018-04-18T22:32:55.730Z,1.93
2018-04-18T22:35:23.274Z,4.70
2018-04-18T22:37:50.826Z,1.23
2018-04-18T22:40:18.369Z,2.80
2018-04-18T22:42:45.898Z,1.97
2018-04-18T22:45:13.421Z,2.10
2018-04-18T22:47:40.993Z,2.47
2018-04-18T22:50:08.540Z,1.30
2018-04-18T22:52:36.085Z,3.10
2018-04-18T22:55:03.623Z,1.60
2018-04-18T22:57:31.148Z,2.10
2018-04-18T22:59:58.683Z,1.63
2018-04-18T23:02:26.998Z,2.27
2018-04-18T23:04:54.524Z,1.37
2018-04-18T23:07:22.812Z,1.70
2018-04-18T23:09:50.338Z,2.70
2018-04-18T23:12:17.856Z,2.37
2018-04-18T23:14:45.419Z,1.93
2018-04-18T23:17:12.954Z,1.27
2018-04-18T23:19:40.490Z,2.30
2018-04-18T23:22:08.791Z,2.50
2018-04-18T23:24:36.313Z,3.27
2018-04-18T23:27:04.643Z,2.70
2018-04-18T23:29:32.179Z,2.73
2018-04-18T23:31:59.708Z,1.97
2018-04-18T23:34:27.238Z,2.07
2018-04-18T23:36:54.782Z,1.50
2018-04-18T23:39:22.323Z,2.00
2018-04-18T23:41:49.852Z,1.67
2018-04-18T23:44:17.378Z,2.87
2018-04-18T23:46:44.892Z,1.87
2018-04-18T23:49:12.430Z,1.67
2018-04-18T23:51:39.970Z,1.77
2018-04-18T23:54:07.515Z,3.33
2018-04-18T23:56:35.046Z,3.47
2018-04-18T23:59:02.908Z,1.60
